EDDP

Leipzig Halle Airport

Leipzig, Germany
METAR EDDP 192220Z 18008KT CAVOK 22/12 Q1018 NOSIG
Observed Flight Rules
Sep-19 @ 22:20 UTC (13 minutes ago) Visual Flight Rules
Wind Visibility Clouds
180° at 8 knots 10,000+ meters
  • Clear skies
Temperatures Readings
Current 22°C / 72°F
Dewpoint 12°C / 54°F
Humidity 53%
Altimeter 30.06" Hg
Pressure 1018 hPa
Elevation 149
METAR EDDP 192220Z 18008KT CAVOK 22/12 Q1018 NOSIG
Observed Flight Rules
Sep-19 @ 22:20 UTC
(13 minutes ago)
VFR
Wind Visibility
180° at 8 knots 10,000+ meters
Clouds
  • Clear skies
Temperature Dewpoint
22°C / 72°F 12°C / 54°F
Humidity Altimeter Pressure
53% 30.06" Hg 1018 hPa